• Join FlightAware (Why Join?)
  • Login
  • US Flag 
11:19PM EST


 

Airport Tracker/Info


-or-


 

Live Flight TrackerFlight Track Log ✈ XOJ747 ✈ 28-Jul-2013 ✈ KSAT - KLAS

Flight Track Log - Related Links

Times and Time Zones

All times are in EDT time to prevent confusion due to time zone crossing. See the XOJ747 flight status page for this flight to view local times or setup timezone preferences in your user account.

Time Position Orientation Groundspeed Altitude Reporting Facility
EDT Latitude Longitude Course Direction KTS MPH feet Rate Location/Type
03:40PM 29.5078 -98.4392 154° Southeast 193 222 2,700  Level Houston Center
03:42PM 29.4547 -98.4089 154° Southeast 240 276 5,400 2,460 Climbing Houston Center
03:42PM 29.4481 -98.4728 263° West 285 328 7,500 2,700 Climbing Houston Center
03:43PM 29.5133 -98.5228 326° Northwest 288 331 10,400 2,280 Climbing Houston Center
03:45PM 29.6042 -98.5908 327° Northwest 319 367 12,800 1,440 Climbing Houston Center
03:46PM 29.6875 -98.6625 323° Northwest 386 444 13,800 1,680 Climbing Houston Center
03:47PM 29.7317 -98.7828 293° West 380 437 16,300 2,400 Climbing Houston Center
03:48PM 29.8011 -98.8694 313° West 374 430 18,800 2,280 Climbing Houston Center
03:49PM 29.8822 -98.9553 317° Northwest 367 422 21,100 2,040 Climbing Houston Center
03:50PM 29.9586 -99.0331 319° Northwest 367 422 23,100 1,800 Climbing Houston Center
03:51PM 30.0292 -99.1153 315° West 370 426 24,900 1,560 Climbing Houston Center
03:52PM 30.0778 -99.2200 298° West 373 429 26,400 1,440 Climbing Houston Center
03:53PM 30.1289 -99.3294 298° West 385 443 27,900 1,440 Climbing Houston Center
03:54PM 30.1825 -99.4419 299° West 399 459 29,400 1,560 Climbing Houston Center
03:55PM 30.2475 -99.5797 299° West 409 471 31,200 1,380 Climbing Houston Center
03:56PM 30.3019 -99.6978 298° West 416 479 32,300 960 Climbing Houston Center
03:57PM 30.3600 -99.8208 299° West 433 498 33,300 960 Climbing Houston Center
03:58PM 30.4186 -99.9469 298° West 447 514 34,300 1,020 Climbing Houston Center
03:59PM 30.4914 -100.1044 298° West 461 531 35,500 1,020 Climbing Houston Center
04:00PM 30.5528 -100.2389 298° West 480 552 36,500 960 Climbing Houston Center
04:01PM 30.6139 -100.3739 298° West 487 560 37,500 960 Climbing Houston Center
04:02PM 30.6769 -100.5119 298° West 491 565 38,500 960 Climbing Houston Center
04:03PM 30.7389 -100.6483 298° West 488 562 39,500 960 Climbing Houston Center
04:04PM 30.8133 -100.8092 298° West 472 543 40,600 960 Climbing Houston Center
04:05PM 30.8736 -100.9500 297° West 485 558 41,600 960 Climbing Houston Center
04:06PM 30.9364 -101.0817 299° West 470 541 42,600 660 Climbing Houston Center
04:07PM 30.9983 -101.2125 299° West 460 529 43,000 180 Climbing Houston Center
04:09PM 31.0681 -101.3744 297° West 474 545 43,000 120 Level Houston Center
04:10PM 31.1228 -101.5119 295° West 471 542 43,300 480 Climbing Houston Center
04:11PM 31.1853 -101.6464 299° West 471 542 44,100 720 Climbing Houston Center
04:12PM 31.2439 -101.7786 297° West 465 535 44,800 420 Climbing Houston Center
04:13PM 31.3033 -101.9114 298° West 463 533 45,000 60 Climbing Houston Center
04:14PM 31.3764 -102.0708 298° West 466 536 45,000  Level Houston Center
04:15PM 31.4142 -102.1736 293° West 473 544 45,000  Level Albuquerque Center
04:16PM 31.4697 -102.3456 291° West 475 547 45,000  Level Albuquerque Center
04:17PM 31.5069 -102.4964 286° West 479 551 45,000  Level Albuquerque Center
04:18PM 31.5461 -102.6508 287° West 477 549 45,000  Level Albuquerque Center
04:19PM 31.5842 -102.7983 287° West 476 548 45,000  Level Albuquerque Center
04:20PM 31.6222 -102.9461 287° West 475 547 45,000  Level Albuquerque Center
04:21PM 31.6619 -103.0942 288° West 476 548 45,000  Level Albuquerque Center
04:22PM 31.7008 -103.2419 287° West 476 548 45,000  Level Albuquerque Center
04:23PM 31.7428 -103.3883 289° West 476 548 45,000  Level Albuquerque Center
04:24PM 31.8017 -103.5606 292° West 475 547 45,000  Level Albuquerque Center
04:25PM 31.8528 -103.7075 292° West 480 552 45,000  Level Albuquerque Center
04:26PM 31.8994 -103.8539 291° West 481 554 45,000  Level Albuquerque Center
04:27PM 31.9411 -104.0022 288° West 480 552 45,000  Level Albuquerque Center
04:28PM 31.9858 -104.1478 290° West 472 543 45,000  Level Albuquerque Center
04:29PM 32.0333 -104.2911 291° West 469 540 45,100 180 Climbing Albuquerque Center
04:30PM 32.0814 -104.4331 292° West 469 540 45,400 360 Climbing Albuquerque Center
04:31PM 32.1400 -104.6028 292° West 469 540 45,900 420 Climbing Albuquerque Center
04:32PM 32.1881 -104.7417 292° West 466 536 46,300 300 Climbing Albuquerque Center
04:33PM 32.2367 -104.8811 292° West 464 534 46,600 300 Climbing Albuquerque Center
04:34PM 32.2850 -105.0186 293° West 462 532 47,000 180 Climbing Albuquerque Center
04:35PM 32.3281 -105.1586 290° West 458 527 47,000  Level Albuquerque Center
04:36PM 32.3722 -105.3003 290° West 458 527 47,000  Level Albuquerque Center
04:37PM 32.4097 -105.4772 284° West 464 534 47,000  Level Albuquerque Center
04:38PM 32.4297 -105.6289 279° West 468 539 47,000  Level Albuquerque Center
04:39PM 32.4525 -105.7789 280° West 468 539 47,000  Level Albuquerque Center
04:40PM 32.4775 -105.9281 281° West 467 537 47,000  Level Albuquerque Center
04:41PM 32.5111 -106.0744 285° West 468 539 47,000  Level Albuquerque Center
04:42PM 32.5544 -106.2456 287° West 465 535 47,000  Level Albuquerque Center
04:43PM 32.5936 -106.3986 287° West 471 542 47,000  Level Albuquerque Center
04:44PM 32.6325 -106.5439 288° West 467 537 47,000  Level Albuquerque Center
04:45PM 32.6719 -106.6889 288° West 465 535 47,000  Level Albuquerque Center
04:46PM 32.7128 -106.8358 288° West 470 541 47,000  Level Albuquerque Center
04:48PM 32.7583 -106.9797 291° West 474 545 47,000  Level Albuquerque Center
04:49PM 32.8036 -107.1228 291° West 471 542 47,000  Level Albuquerque Center
04:50PM 32.8561 -107.2942 290° West 466 536 47,000  Level Albuquerque Center
04:51PM 32.9025 -107.4372 291° West 467 537 47,000  Level Albuquerque Center
04:52PM 32.9467 -107.5803 290° West 464 534 47,000  Level Albuquerque Center
04:53PM 32.9917 -107.7247 290° West 466 536 47,000 -60 Level Albuquerque Center
04:54PM 33.0378 -107.8692 291° West 468 539 46,900  Descending Albuquerque Center
04:55PM 33.0828 -108.0150 290° West 470 541 47,000  Climbing Albuquerque Center
04:56PM 33.1353 -108.1811 291° West 468 539 47,000  Level Albuquerque Center
04:57PM 33.1786 -108.3247 290° West 465 535 47,000  Level Albuquerque Center
04:58PM 33.2233 -108.4692 290° West 467 537 47,000  Level Albuquerque Center
04:59PM 33.2686 -108.6133 291° West 468 539 47,000  Level Albuquerque Center
05:00PM 33.3217 -108.7864 290° West 468 539 47,000  Level Albuquerque Center
05:01PM 33.3647 -108.9319 290° West 470 541 47,000  Level Albuquerque Center
05:02PM 33.4083 -109.0767 290° West 469 540 47,000  Level Albuquerque Center
05:03PM 33.4514 -109.2222 290° West 469 540 47,000  Level Albuquerque Center
05:04PM 33.4953 -109.3672 290° West 467 537 47,000  Level Albuquerque Center
05:05PM 33.5533 -109.5408 292° West 471 542 47,000  Level Albuquerque Center
05:06PM 33.6117 -109.6811 297° West 473 544 47,000  Level Albuquerque Center
05:07PM 33.6700 -109.8242 296° West 477 549 47,000  Level Albuquerque Center
05:08PM 33.7281 -109.9658 296° West 478 550 47,000  Level Albuquerque Center
05:09PM 33.7850 -110.1131 295° West 485 558 47,000  Level Albuquerque Center
05:10PM 33.8419 -110.2564 296° West 481 554 47,000  Level Albuquerque Center
05:11PM 33.9094 -110.4253 296° West 478 550 47,000  Level Albuquerque Center
05:12PM 33.9664 -110.5694 295° West 478 550 47,000  Level Albuquerque Center
05:13PM 34.0253 -110.7150 296° West 476 548 47,000  Level Albuquerque Center
05:14PM 34.0803 -110.8558 295° West 475 547 47,000  Level Albuquerque Center
05:15PM 34.1350 -110.9989 295° West 474 545 47,000  Level Albuquerque Center
05:16PM 34.1914 -111.1414 296° West 474 545 47,000  Level Albuquerque Center
05:17PM 34.2561 -111.3092 295° West 465 535 47,000  Level Albuquerque Center
05:18PM 34.3083 -111.4414 296° West 447 514 47,000  Level Albuquerque Center
05:19PM 34.3572 -111.5714 295° West 434 499 47,000  Level Albuquerque Center
05:20PM 34.4075 -111.7008 295° West 431 496 47,000 -300 Level Albuquerque Center
05:21PM 34.4589 -111.8347 295° West 439 505 46,400 -840 Descending Albuquerque Center
05:22PM 34.5100 -111.9728 294° West 449 517 45,400 -1,080 Descending Albuquerque Center
05:24PM 34.5711 -112.1331 295° West 442 509 44,200 -1,080 Descending Albuquerque Center
05:25PM 34.6197 -112.2636 294° West 431 496 43,200 -1,080 Descending Albuquerque Center
05:26PM 34.6678 -112.3903 295° West 424 488 42,100 -1,500 Descending Albuquerque Center
05:27PM 34.7161 -112.5172 295° West 418 481 40,100 -2,040 Descending Albuquerque Center
05:28PM 34.7681 -112.6472 296° West 425 489 37,900 -2,160 Descending Albuquerque Center
05:29PM 34.8203 -112.7831 295° West 438 504 35,700 -2,340 Descending Albuquerque Center
05:30PM 34.8831 -112.9478 295° West 445 512 33,200 -2,280 Descending Albuquerque Center
05:31PM 34.9364 -113.0853 295° West 446 513 31,000 -1,200 Descending Albuquerque Center
05:32PM 35.0103 -113.2714 296° West 435 501 30,000 -480 Descending Los Angeles Center
05:33PM 35.1297 -113.3867 322° Northwest 454 522 29,800 -780 Descending Los Angeles Center
05:34PM 35.2244 -113.4800 321° Northwest 438 504 28,400 -1,860 Descending Los Angeles Center
05:36PM 35.3217 -113.5878 318° Northwest 399 459 26,000 -2,040 Descending Los Angeles Center
05:37PM 35.3775 -113.6958 302° West 379 436 24,300 -1,620 Descending Los Angeles Center
05:38PM 35.4322 -113.7997 303° West 365 420 22,700 -1,740 Descending Los Angeles Center
05:39PM 35.4869 -113.9011 304° West 360 414 20,800 -1,800 Descending Los Angeles Center
05:40PM 35.5386 -113.9978 303° West 343 395 19,000 -1,980 Descending Los Angeles Center
05:41PM 35.5817 -114.1217 293° West 327 376 16,800 -1,860 Descending Los Angeles Center
05:42PM 35.5953 -114.2275 279° West 316 364 15,200 -1,380 Descending Los Angeles Center
05:43PM 35.6433 -114.2983 310° West 317 365 14,300 -1,560 Descending Los Angeles Center
05:44PM 35.7194 -114.3678 323° Northwest 319 367 12,400 -1,200 Descending Los Angeles Center
05:45PM 35.7989 -114.4128 335° Northwest 316 364 12,000 -360 Descending Los Angeles Center
05:46PM 35.8747 -114.4614 333° Northwest 314 361 11,700 -660 Descending Los Angeles Center
05:47PM 35.9333 -114.5400 313° West 307 353 10,700 -960 Descending Los Angeles Center
05:48PM 35.9808 -114.6067 311° West 260 299 9,800 -900 Descending Los Angeles Center
05:49PM 36.0269 -114.6683 313° West 243 280 8,900 -900 Descending Los Angeles Center
05:50PM 36.0681 -114.7369 307° West 230 265 8,000 -960 Descending Los Angeles Center
05:51PM 36.0733 -114.8097 275° West 215 247 7,000 -900 Descending Los Angeles Center
05:52PM 36.0725 -114.8847 269° West 216 249 6,200 -840 Descending Los Angeles Center
05:53PM 36.0733 -114.9481 271° West 190 219 5,300 -1,020 Descending Los Angeles Center
05:54PM 36.0728 -115.0044 269° West 160 184 4,200 -1,020 Descending Los Angeles Center
05:55PM 36.0742 -115.0597 272° West 151 174 3,300 -900 Descending Los Angeles Center
05:56PM 36.0722 -115.1108 267° West 147 169 2,400 -900 Descending Los Angeles Center
05:58PM 36.0667 -115.1500 270° West  Level FlightAware Approximate